offsetguitars.com alexa rank chart, offsetguitars.com alexa rank daily changes

offsetguitars.com alexa rank chart, offsetguitars.com alexa rank daily changes

offsetguitars.com
Actual rank:
307 376

RANK HISTORY

Date Rank Diff
2017/08/20 307 376 +1 851
2017/08/19 305 525 +5 484
2017/08/18 300 041 +2 055
2017/08/17 297 986 +3 684
2017/08/16 294 302 -3 540
2017/08/15 297 842 -5 292
2017/08/14 303 134 -3 417
2017/08/13 306 551 +12 409
2017/08/12 294 142 -4 318
2017/08/11 298 460 -4
2017/08/10 298 464 -1 550
2017/08/09 300 014 +4 586
2017/08/08 295 428 -6 457
2017/08/07 301 885 -699
2017/08/06 302 584 +4 352
2017/08/05 298 232 +4 382
2017/08/04 293 850 -3 810
2017/08/03 297 660 +16 295
2017/08/02 281 365 +5 673
2017/08/01 275 692 +1 868
2017/07/31 273 824 -5 154
2017/07/30 278 978 -1 802
2017/07/29 280 780 -2 238
2017/07/28 283 018 +5 527
2017/07/27 277 491 +9 437
2017/07/26 268 054 +269
2017/07/25 267 785 +1 022
2017/07/24 266 763 -1 097
2017/07/23 267 860 -1 568
2017/07/22 269 428 +5 233
2017/07/21 264 195 -3 956
2017/07/20 268 151 +327
2017/07/19 267 824 -6 331
2017/07/18 274 155 +5 715
2017/07/17 268 440 +3 973
2017/07/16 264 467 -2 090
2017/07/15 266 557 -263
2017/07/14 266 820 +1 988
2017/07/13 264 832 -2 689
2017/07/12 267 521 +11 296
2017/07/11 256 225 +6 328
2017/07/10 249 897 +69
2017/07/09 249 828 +777
2017/07/08 249 051 -2 942
2017/07/07 251 993 -1 737
2017/07/06 253 730 +1 454
2017/07/05 252 276 -1 695
2017/07/04 253 971 +2 388
2017/07/03 251 583 -9 989
2017/07/02 261 572 -5 592
2017/07/01 267 164 +6 222
2017/06/30 260 942 +10 145
2017/06/29 250 797 +512
2017/06/28 250 285 -1 304
2017/06/27 251 589 -4 076
2017/06/26 255 665 +5 772
2017/06/25 249 893 +2 765
2017/06/24 247 128 +4 229
2017/06/23 242 899 +4 640
2017/06/22 238 259 +2 135
2017/06/21 236 124

WIDGET FOR YOUR SITE

DOMAINS WITH THE NEAREST RANK

Domain Rank
khedmatazma.com 307 371
videosearchingforupdating.review 307 372
nashvillepublicradio.org 307 373
gordas.xxx 307 374
turtlebayresort.com 307 375
offsetguitars.com 307 376
admasterplus.com 307 377
sunmusic.org 307 378
isola-japan.com 307 379
clubmed.com.my 307 380
erinpavlina.com 307 381

DOMAINS WITH THE NEAREST RANK BY TLD .com

Domain Rank
xpm-faucet.com 307 368
coringco.com 307 369
meupornogratis.com 307 370
khedmatazma.com 307 371
turtlebayresort.com 307 375
offsetguitars.com 307 376
admasterplus.com 307 377
isola-japan.com 307 379
erinpavlina.com 307 381
wally.com 307 382
colorkinetics.com 307 383